Time;durP1;ratioP1;P1;durP2;ratioP2;P2;SDS_P1;SDS_P2;PMS_P1;PMS_P2;Temp;Humidity;BMP_temperature;BMP_pressure;BME280_temperature;BME280_humidity;BME280_pressure;Samples;Min_cycle;Max_cycle;Signal;HPM_P1;HPM_P2
2024/04/01 00:01:02;;;;;;;17.52;11.57;;;11.90;99.90;;;12.09;100.00;99133.41;5049283;28;20060;-68
2024/04/01 00:03:29;;;;;;;20.85;12.68;;;11.90;99.90;;;12.35;100.00;99158.91;5049248;28;20037;-68
2024/04/01 00:05:58;;;;;;;16.60;11.57;;;12.00;99.90;;;12.41;100.00;99154.22;5049182;28;20087;-68
2024/04/01 00:08:25;;;;;;;17.13;12.13;;;12.10;99.90;;;12.44;100.00;99153.25;5048918;28;20138;-69
2024/04/01 00:10:53;;;;;;;17.05;11.82;;;12.10;99.90;;;12.46;100.00;99152.28;5049053;28;20045;-68
2024/04/01 00:13:19;;;;;;;15.90;12.35;;;12.20;99.90;;;12.59;100.00;99161.47;5049118;28;20049;-69
2024/04/01 00:15:48;;;;;;;17.45;12.43;;;12.30;99.90;;;12.70;100.00;99159.22;5049057;28;20410;-69
2024/04/01 00:18:15;;;;;;;17.63;11.65;;;12.40;99.90;;;12.79;100.00;99150.03;5031615;28;20060;-68
2024/04/01 00:20:42;;;;;;;17.75;12.27;;;12.50;99.90;;;12.77;100.00;99154.56;5048970;28;20041;-69
2024/04/01 00:23:08;;;;;;;15.60;11.73;;;12.50;99.90;;;12.61;100.00;99158.75;5049032;28;20044;-68
2024/04/01 00:25:36;;;;;;;15.50;11.70;;;12.40;99.90;;;12.45;100.00;99153.19;5049005;28;20055;-68
2024/04/01 00:28:03;;;;;;;20.73;11.70;;;12.20;99.90;;;12.30;100.00;99158.22;5048954;28;20512;-68
2024/04/01 00:30:32;;;;;;;20.10;12.23;;;12.00;99.90;;;12.20;100.00;99152.41;5049033;28;20045;-68
2024/04/01 00:33:00;;;;;;;14.45;10.77;;;11.90;99.90;;;12.19;100.00;99163.94;5049118;28;20060;-68
2024/04/01 00:35:27;;;;;;;16.75;12.63;;;11.90;99.90;;;12.14;100.00;99152.63;5032401;28;20564;-70
2024/04/01 00:37:53;;;;;;;19.30;12.43;;;11.80;99.90;;;12.22;100.00;99147.03;5048804;28;20490;-70
2024/04/01 00:40:21;;;;;;;18.38;11.95;;;11.90;99.90;;;12.33;100.00;99129.78;5048744;28;20037;-70
2024/04/01 00:42:48;;;;;;;18.70;12.13;;;12.00;99.90;;;12.42;100.00;99128.56;5048926;28;20049;-69
2024/04/01 00:45:15;;;;;;;17.25;12.45;;;12.10;99.90;;;12.38;100.00;99129.63;5048854;28;20049;-68
2024/04/01 00:47:42;;;;;;;22.30;12.23;;;12.10;99.90;;;12.35;100.00;99133.25;5048733;28;20102;-68
2024/04/01 00:50:11;;;;;;;20.10;12.63;;;12.10;99.90;;;12.37;100.00;99127.88;5049083;28;20443;-68
2024/04/01 00:52:37;;;;;;;19.85;12.77;;;12.20;99.90;;;12.44;100.00;99126.72;5048634;28;20052;-68
2024/04/01 00:55:05;;;;;;;20.73;13.07;;;12.20;99.90;;;12.47;100.00;99130.13;5048480;28;20048;-68
2024/04/01 00:57:32;;;;;;;16.35;12.70;;;12.30;99.90;;;12.47;100.00;99130.13;5048398;28;20036;-68
2024/04/01 01:00:00;;;;;;;17.70;12.65;;;12.30;99.90;;;12.51;100.00;99131.72;5032013;28;20057;-68
2024/04/01 01:02:29;;;;;;;18.90;12.77;;;12.30;99.90;;;12.53;100.00;99140.47;5048687;28;20127;-68
2024/04/01 01:04:58;;;;;;;16.60;11.88;;;12.30;99.90;;;12.58;100.00;99142.97;5048323;28;20041;-68
2024/04/01 01:07:26;;;;;;;18.80;11.77;;;12.30;99.90;;;12.51;100.00;99137.03;5048672;28;20033;-68
2024/04/01 01:09:54;;;;;;;15.55;11.27;;;12.30;99.90;;;12.50;100.00;99137.09;5048264;28;20106;-68
2024/04/01 01:12:21;;;;;;;18.33;12.27;;;12.30;99.90;;;12.59;100.00;99142.91;5048776;28;20140;-68
2024/04/01 01:14:50;;;;;;;17.98;11.88;;;12.30;99.90;;;12.54;100.00;99136.06;5048191;28;20049;-68
2024/04/01 01:17:16;;;;;;;17.85;11.70;;;12.30;99.90;;;12.49;100.00;99133.56;5048278;28;20048;-68
2024/04/01 01:19:44;;;;;;;15.73;11.48;;;12.30;99.90;;;12.48;100.00;99139.81;5048152;28;20037;-68
2024/04/01 01:22:15;;;;;;;14.13;11.15;;;12.20;99.90;;;12.26;100.00;99149.53;5048452;28;20040;-68
2024/04/01 01:24:42;;;;;;;18.48;11.75;;;12.10;99.90;;;12.29;100.00;99124.69;5048182;28;20056;-68
2024/04/01 01:27:09;;;;;;;19.33;11.75;;;12.00;99.90;;;12.08;100.00;99115.78;5048026;28;20034;-69
2024/04/01 01:29:36;;;;;;;14.45;11.05;;;11.90;99.90;;;12.21;100.00;99140.03;5051658;28;20075;-67
2024/04/01 01:32:04;;;;;;;16.50;10.70;;;11.90;99.90;;;12.11;100.00;99147.47;5051882;28;20056;-68
2024/04/01 01:34:33;;;;;;;12.50;10.45;;;11.80;99.90;;;11.96;100.00;99136.59;5051716;28;20033;-68
2024/04/01 01:37:00;;;;;;;14.38;11.52;;;11.70;99.90;;;11.91;100.00;99133.22;5051619;28;20037;-68
2024/04/01 01:39:28;;;;;;;16.35;11.15;;;11.60;99.90;;;11.80;100.00;99141.59;5051866;28;20083;-68
2024/04/01 01:41:55;;;;;;;17.05;11.65;;;11.50;99.90;;;11.72;100.00;99139.22;5051631;28;20045;-68
2024/04/01 01:44:22;;;;;;;17.60;12.30;;;11.40;99.90;;;11.73;100.00;99135.66;5051594;28;20064;-68
2024/04/01 01:46:49;;;;;;;17.48;11.88;;;11.40;99.90;;;11.90;100.00;99139.47;5051557;28;20045;-68
2024/04/01 01:49:16;;;;;;;14.15;12.43;;;11.50;99.90;;;12.07;100.00;99129.09;5051587;28;20094;-68
2024/04/01 01:51:43;;;;;;;14.77;11.68;;;11.70;99.90;;;12.04;100.00;99130.06;5051389;28;20037;-69
2024/04/01 01:54:09;;;;;;;21.05;12.88;;;11.70;99.90;;;12.02;100.00;99136.34;5051172;28;20052;-67
2024/04/01 01:56:38;;;;;;;16.77;12.07;;;11.70;99.90;;;11.80;100.00;99138.94;5034977;28;20506;-68
2024/04/01 01:59:04;;;;;;;17.50;11.57;;;11.60;99.90;;;11.47;100.00;99146.31;5051401;28;20764;-68
2024/04/01 02:01:32;;;;;;;14.10;11.90;;;11.30;99.90;;;11.42;100.00;99150.88;5051267;28;20041;-68
2024/04/01 02:03:58;;;;;;;14.35;11.80;;;11.10;99.90;;;11.58;100.00;99159.13;5051191;28;20441;-68
2024/04/01 02:06:26;;;;;;;15.50;11.88;;;11.20;99.90;;;11.56;100.00;99148.63;5034618;28;20041;-68
2024/04/01 02:08:52;;;;;;;16.90;12.15;;;11.20;99.90;;;11.66;100.00;99144.75;5051294;28;20041;-68
2024/04/01 02:11:19;;;;;;;15.02;11.60;;;11.40;99.90;;;11.54;100.00;99149.56;5051709;28;20055;-68
2024/04/01 02:13:48;;;;;;;16.58;12.40;;;11.30;99.90;;;11.49;100.00;99141.81;5051056;28;20084;-68
2024/04/01 02:16:15;;;;;;;19.98;13.40;;;11.20;99.90;;;11.46;100.00;99147.22;5034427;28;20049;-68
2024/04/01 02:18:41;;;;;;;18.15;12.77;;;11.20;99.90;;;11.49;100.00;99163.00;5050917;28;20243;-68
2024/04/01 02:21:09;;;;;;;13.90;12.40;;;11.20;99.90;;;11.62;100.00;99145.75;5051134;28;20037;-68
2024/04/01 02:23:35;;;;;;;18.00;12.65;;;11.30;99.90;;;11.63;100.00;99152.75;5517475;23;20060;-65
2024/04/01 02:26:03;;;;;;;13.57;11.80;;;11.40;99.90;;;11.73;100.00;99155.97;5051400;28;20525;-67
2024/04/01 02:28:30;;;;;;;14.52;11.57;;;11.40;99.90;;;11.75;100.00;99147.06;5051460;28;20103;-66
2024/04/01 02:30:59;;;;;;;14.43;12.10;;;11.50;99.90;;;11.77;100.00;99142.56;5051547;28;20098;-64
2024/04/01 02:33:26;;;;;;;13.73;12.18;;;11.50;99.90;;;11.56;100.00;99110.66;5052294;28;20037;-66
2024/04/01 02:35:54;;;;;;;18.85;12.05;;;11.50;99.90;;;11.76;100.00;99156.75;5051227;28;20564;-66
2024/04/01 02:38:21;;;;;;;15.40;11.85;;;11.50;99.90;;;11.69;100.00;99159.69;5051319;28;20045;-64
2024/04/01 02:40:48;;;;;;;16.75;11.75;;;11.40;99.90;;;11.69;100.00;99162.31;5051449;28;20041;-66
2024/04/01 02:43:15;;;;;;;14.77;11.68;;;11.40;99.90;;;11.72;100.00;99157.78;5052183;28;20395;-67
2024/04/01 02:45:42;;;;;;;14.82;11.40;;;11.50;99.90;;;11.69;100.00;99152.56;5052578;28;20060;-64
2024/04/01 02:48:10;;;;;;;14.13;10.77;;;11.50;99.90;;;11.67;100.00;99159.69;5052957;28;20037;-64
2024/04/01 02:50:37;;;;;;;15.25;10.63;;;11.50;99.90;;;11.62;100.00;99152.81;5053091;28;20398;-64
2024/04/01 02:53:05;;;;;;;14.35;10.60;;;11.30;99.90;;;11.65;100.00;99147.44;5052868;28;20079;-63
2024/04/01 02:55:31;;;;;;;12.90;11.10;;;11.40;99.90;;;11.69;100.00;99149.06;5052868;28;20053;-64
2024/04/01 02:57:58;;;;;;;15.55;10.55;;;11.40;99.90;;;11.79;100.00;99140.72;5052766;28;20098;-64
2024/04/01 03:00:25;;;;;;;14.77;11.43;;;11.50;99.90;;;11.86;100.00;99133.44;5052798;28;20045;-63
2024/04/01 03:02:52;;;;;;;12.30;10.50;;;11.60;99.90;;;11.99;100.00;99152.34;5052684;28;20053;-64
2024/04/01 03:05:20;;;;;;;13.75;10.48;;;11.70;99.90;;;12.01;100.00;99146.09;5052859;28;20099;-64
2024/04/01 03:07:51;;;;;;;12.93;10.32;;;11.80;99.90;;;12.00;100.00;99152.28;5052630;28;20045;-66
2024/04/01 03:10:17;;;;;;;;;;;11.80;99.90;;;12.01;100.00;99139.91;5052992;28;20052;-64
2024/04/01 03:12:47;;;;;;;12.88;8.73;;;11.80;99.90;;;12.05;100.00;99141.53;5036042;28;19947;-64
2024/04/01 03:15:16;;;;;;;14.13;9.63;;;11.80;99.90;;;12.07;100.00;99144.97;5052537;28;20182;-64
2024/04/01 03:17:44;;;;;;;9.95;8.90;;;11.80;99.90;;;11.93;100.00;99120.78;5052508;28;20060;-64
2024/04/01 03:20:12;;;;;;;11.77;9.38;;;11.80;99.90;;;11.99;100.00;99133.81;5052604;28;20103;-64
2024/04/01 03:22:41;;;;;;;11.25;9.00;;;11.80;99.90;;;12.12;100.00;99150.97;5068714;28;20494;-63
2024/04/01 03:25:07;;;;;;;12.88;9.48;;;11.90;99.90;;;12.07;100.00;99156.47;5052335;28;20048;-63
2024/04/01 03:27:35;;;;;;;10.68;9.02;;;11.80;99.90;;;12.05;100.00;99152.13;5035574;28;20106;-64
2024/04/01 03:30:01;;;;;;;9.20;8.30;;;11.80;99.90;;;11.99;100.00;99152.34;5052086;28;20500;-64
2024/04/01 03:32:28;;;;;;;10.13;8.95;;;11.70;99.90;;;12.07;100.00;99145.84;5035752;28;20486;-64
2024/04/01 03:34:55;;;;;;;9.77;8.77;;;11.80;99.90;;;12.05;100.00;99144.19;5052110;28;20045;-63
2024/04/01 03:37:22;;;;;;;15.20;9.05;;;11.80;99.90;;;12.16;100.00;99144.63;5052356;28;20098;-63
2024/04/01 03:39:50;;;;;;;11.98;8.65;;;11.90;99.90;;;12.11;100.00;99150.13;5052362;28;20052;-63
2024/04/01 03:42:18;;;;;;;10.02;7.70;;;11.90;99.90;;;12.20;100.00;99146.22;5052034;28;20049;-64
2024/04/01 03:44:46;;;;;;;9.95;7.97;;;11.90;99.90;;;12.24;100.00;99140.75;5051852;28;20426;-63
2024/04/01 03:47:12;;;;;;;9.65;7.95;;;12.00;99.90;;;12.26;100.00;99146.00;5052068;28;20045;-63
2024/04/01 03:49:39;;;;;;;12.50;7.80;;;12.00;99.90;;;12.33;100.00;99155.47;5052044;28;20041;-63
2024/04/01 03:52:06;;;;;;;14.55;8.80;;;12.10;99.90;;;12.32;100.00;99136.03;5050946;28;20052;-64
2024/04/01 03:54:34;;;;;;;12.70;8.25;;;12.10;99.90;;;12.30;100.00;99129.06;5052082;28;20052;-64
2024/04/01 03:57:03;;;;;;;9.32;8.30;;;12.10;99.90;;;12.44;100.00;99142.63;5051627;28;20494;-68
2024/04/01 03:59:30;;;;;;;10.40;8.18;;;12.10;99.90;;;12.46;100.00;99138.13;5051871;28;20375;-63
2024/04/01 04:01:57;;;;;;;9.40;8.02;;;12.20;99.90;;;12.47;100.00;99131.91;5051650;28;20049;-64
2024/04/01 04:04:24;;;;;;;8.93;8.10;;;12.20;99.90;;;12.44;100.00;99132.03;5051643;28;20051;-64
2024/04/01 04:06:50;;;;;;;9.60;8.57;;;12.20;99.90;;;12.43;100.00;99127.63;5051522;28;20114;-63
2024/04/01 04:09:18;;;;;;;11.65;8.45;;;12.10;99.90;;;11.78;100.00;99014.53;5051448;28;20044;-65
2024/04/01 04:11:49;;;;;;;9.68;8.65;;;12.20;99.90;;;12.40;100.00;99133.06;5051298;28;20048;-63
2024/04/01 04:14:20;;;;;;;9.73;8.00;;;12.10;99.90;;;12.34;100.00;99133.31;5051832;28;20075;-63
2024/04/01 04:16:47;;;;;;;10.60;8.02;;;12.10;99.90;;;12.12;100.00;99133.28;5051724;28;20393;-64
2024/04/01 04:19:15;;;;;;;10.65;8.15;;;12.00;99.90;;;12.23;100.00;99131.06;5051613;28;20037;-64
2024/04/01 04:21:42;;;;;;;10.80;8.82;;;12.00;99.90;;;12.26;100.00;99141.56;5051613;28;20041;-63
2024/04/01 04:24:10;;;;;;;9.45;7.97;;;12.00;99.90;;;12.25;100.00;99133.69;5051398;28;20064;-63
2024/04/01 04:26:37;;;;;;;9.05;8.25;;;12.00;99.90;;;12.32;100.00;99135.16;5051136;28;20386;-64
2024/04/01 04:29:05;;;;;;;10.23;8.45;;;12.00;99.90;;;12.34;100.00;99125.38;5051437;28;20045;-63
2024/04/01 04:31:33;;;;;;;9.40;8.48;;;12.00;99.90;;;12.37;100.00;99126.09;5051205;28;20128;-63
2024/04/01 04:34:09;;;;;;;9.77;8.75;;;12.10;99.90;;;12.43;100.00;99133.81;5051205;28;20405;-64
2024/04/01 04:36:36;;;;;;;10.10;8.90;;;12.10;99.90;;;12.45;100.00;99129.31;5051268;28;20053;-63
2024/04/01 04:39:19;;;;;;;11.18;9.68;;;12.10;99.90;;;12.51;100.00;99130.84;5051198;28;20383;-63
2024/04/01 04:41:46;;;;;;;10.00;8.95;;;12.20;99.90;;;12.50;100.00;99143.25;5051234;28;20041;-65
2024/04/01 04:44:14;;;;;;;10.80;9.70;;;12.20;99.90;;;12.53;100.00;99139.63;5051381;28;20045;-64
2024/04/01 04:46:42;;;;;;;10.80;9.05;;;12.20;99.90;;;12.54;100.00;99147.50;5051003;28;20536;-65
2024/04/01 04:49:10;;;;;;;11.75;9.07;;;12.20;99.90;;;12.57;100.00;99151.81;5051007;28;20413;-63
2024/04/01 04:51:36;;;;;;;11.23;10.00;;;12.20;99.90;;;12.60;100.00;99154.38;5051045;28;20045;-65
2024/04/01 04:54:06;;;;;;;12.55;10.20;;;12.30;99.90;;;12.64;100.00;99161.25;5034577;28;20048;-64
2024/04/01 04:56:33;;;;;;;11.40;9.50;;;12.30;99.90;;;12.58;100.00;99167.66;5034619;28;20048;-63
2024/04/01 04:59:02;;;;;;;13.88;10.32;;;12.30;99.90;;;12.61;100.00;99170.22;5051030;28;20410;-63
2024/04/01 05:01:28;;;;;;;13.07;10.00;;;12.30;99.90;;;12.53;100.00;99169.66;5050953;28;20071;-64
2024/04/01 05:03:57;;;;;;;12.30;9.88;;;12.20;99.90;;;12.53;100.00;99171.44;5036643;28;20047;-63
2024/04/01 05:06:24;;;;;;;11.60;9.80;;;12.20;99.90;;;12.45;100.00;99170.88;5055171;28;20444;-63
2024/04/01 05:08:51;;;;;;;11.00;9.90;;;12.10;99.90;;;12.42;100.00;99179.81;5038094;28;20048;-63
2024/04/01 05:11:18;;;;;;;11.23;9.88;;;12.10;99.90;;;12.43;100.00;99185.97;5055116;28;20091;-65
2024/04/01 05:13:45;;;;;;;11.13;9.90;;;12.10;99.90;;;12.43;100.00;99185.97;5038339;28;20045;-63
2024/04/01 05:16:15;;;;;;;11.45;10.20;;;12.10;99.90;;;12.47;100.00;99192.88;5054815;28;20068;-63
2024/04/01 05:18:42;;;;;;;14.20;11.10;;;12.10;99.90;;;12.44;100.00;99193.03;5054728;28;20056;-63
2024/04/01 05:21:10;;;;;;;12.43;10.60;;;12.10;99.90;;;12.43;100.00;99193.94;5054611;28;20094;-64
2024/04/01 05:23:37;;;;;;;12.32;10.00;;;12.10;99.90;;;12.33;100.00;99171.38;5052354;28;20061;-65
2024/04/01 05:26:05;;;;;;;11.77;10.57;;;12.10;99.90;;;11.88;100.00;99107.75;5054453;28;20045;-67
2024/04/01 05:28:32;;;;;;;12.48;11.18;;;12.10;99.90;;;12.46;100.00;99207.09;5054589;28;20056;-63
2024/04/01 05:30:59;;;;;;;12.07;10.75;;;12.10;99.90;;;12.46;100.00;99217.69;5054278;28;20037;-64
2024/04/01 05:33:31;;;;;;;12.93;10.80;;;12.10;99.90;;;12.44;100.00;99209.81;5054432;28;20123;-64
2024/04/01 05:35:59;;;;;;;12.68;10.93;;;12.10;99.90;;;12.43;100.00;99215.13;5054424;28;20067;-63
2024/04/01 05:38:28;;;;;;;11.05;9.95;;;12.10;99.90;;;12.41;100.00;99220.50;5054478;28;20040;-67
2024/04/01 05:40:54;;;;;;;11.50;10.35;;;12.10;99.90;;;12.42;100.00;99224.91;5054297;28;20440;-64
2024/04/01 05:43:21;;;;;;;13.45;10.48;;;12.10;99.90;;;12.24;100.00;99204.38;5054203;28;20048;-66
2024/04/01 05:45:49;;;;;;;13.48;10.82;;;12.10;99.90;;;12.45;100.00;99226.56;5054020;28;20048;-63
2024/04/01 05:48:17;;;;;;;12.13;10.68;;;12.10;99.90;;;12.47;100.00;99228.22;5054063;28;20041;-65
2024/04/01 05:50:49;;;;;;;12.77;10.63;;;12.10;99.90;;;12.51;100.00;99229.84;5054217;28;20056;-64
2024/04/01 05:53:16;;;;;;;12.32;10.98;;;12.10;99.90;;;12.52;100.00;99228.91;5054072;28;20444;-63
2024/04/01 05:55:46;;;;;;;12.25;11.00;;;12.20;99.90;;;12.53;100.00;99229.78;5054055;28;20079;-64
2024/04/01 05:58:13;;;;;;;13.52;10.85;;;12.20;99.90;;;12.56;100.00;99233.16;5054314;28;20094;-64
2024/04/01 06:00:40;;;;;;;11.60;10.45;;;12.20;99.90;;;12.56;100.00;99237.63;5054236;28;20044;-63
2024/04/01 06:03:07;;;;;;;12.13;10.65;;;12.20;99.90;;;12.56;100.00;99238.47;5053944;28;20496;-64
2024/04/01 06:05:35;;;;;;;11.23;10.13;;;12.20;99.90;;;12.57;100.00;99237.56;5054086;28;20436;-65
2024/04/01 06:08:01;;;;;;;11.23;10.13;;;12.20;99.90;;;12.57;100.00;99242.88;5053668;28;20037;-64
2024/04/01 06:10:29;;;;;;;11.75;10.55;;;12.20;99.90;;;12.57;100.00;99242.00;5054003;28;20434;-64
2024/04/01 06:12:56;;;;;;;12.50;10.43;;;12.20;99.90;;;12.57;100.00;99234.03;5053869;28;20049;-64
2024/04/01 06:15:24;;;;;;;11.90;9.90;;;12.20;99.90;;;12.58;100.00;99241.09;5053002;28;20044;-64
2024/04/01 06:17:51;;;;;;;10.50;9.50;;;12.20;99.90;;;12.57;100.00;99242.88;5053984;28;20041;-64
2024/04/01 06:20:19;;;;;;;11.55;10.40;;;12.20;99.90;;;12.55;100.00;99236.75;5053381;28;20049;-64
2024/04/01 06:22:45;;;;;;;11.35;10.25;;;12.20;99.90;;;12.57;100.00;99234.03;5053408;28;20041;-65
2024/04/01 06:25:13;;;;;;;11.52;10.35;;;12.20;99.90;;;12.56;100.00;99235.81;5036918;28;20049;-64
2024/04/01 06:27:39;;;;;;;12.90;9.65;;;12.20;99.90;;;12.58;100.00;99233.97;5053283;28;20067;-64
2024/04/01 06:30:09;;;;;;;10.95;9.88;;;12.30;99.90;;;12.59;100.00;99235.72;5053333;28;20049;-65
2024/04/01 06:32:38;;;;;;;11.65;10.43;;;12.30;99.90;;;12.59;100.00;99238.38;5053784;28;20044;-68
2024/04/01 06:35:06;;;;;;;15.68;11.05;;;12.20;99.90;;;12.60;100.00;99236.59;5053183;28;20060;-63
2024/04/01 06:37:34;;;;;;;11.50;10.40;;;12.30;99.90;;;12.58;100.00;99241.09;5053213;28;20051;-64
2024/04/01 06:40:02;;;;;;;11.48;10.27;;;12.20;99.90;;;12.51;100.00;99239.56;5053348;28;20378;-64
2024/04/01 06:42:28;;;;;;;11.45;10.35;;;12.20;99.90;;;12.56;100.00;99243.78;5053117;28;20052;-64
2024/04/01 06:44:55;;;;;;;11.63;10.43;;;12.20;99.90;;;12.63;100.00;99255.03;5053052;28;20053;-61
2024/04/01 06:47:23;;;;;;;11.57;10.48;;;12.30;99.90;;;12.67;100.00;99254.88;5053052;28;20041;-62
2024/04/01 06:49:51;;;;;;;11.77;10.60;;;12.30;99.90;;;12.75;100.00;99261.66;5036498;28;20048;-62
2024/04/01 06:52:17;;;;;;;11.23;10.23;;;12.40;99.90;;;12.72;100.00;99267.91;5053168;28;20083;-62
2024/04/01 06:54:44;;;;;;;11.10;10.10;;;12.40;99.90;;;12.71;100.00;99268.88;5053194;28;20041;-66
2024/04/01 06:57:11;;;;;;;11.20;10.20;;;12.40;99.90;;;12.67;100.00;99291.13;5053219;28;20049;-66
2024/04/01 06:59:38;;;;;;;11.02;10.02;;;12.40;99.90;;;12.79;100.00;99284.47;5036301;28;20045;-67
2024/04/01 07:02:05;;;;;;;11.57;10.38;;;12.40;99.90;;;12.74;100.00;99289.94;5052744;28;20085;-65
2024/04/01 07:04:34;;;;;;;11.48;10.20;;;12.40;99.90;;;12.75;100.00;99289.03;5052815;28;20068;-66
2024/04/01 07:07:00;;;;;;;10.85;9.82;;;12.40;99.90;;;12.79;100.00;99290.66;5052399;28;20041;-66
2024/04/01 07:09:27;;;;;;;11.43;10.30;;;12.40;99.90;;;12.80;100.00;99295.03;5052914;28;20076;-64
2024/04/01 07:11:54;;;;;;;10.82;9.85;;;12.50;99.90;;;12.77;100.00;99300.47;5052739;28;20379;-67
2024/04/01 07:14:21;;;;;;;10.60;9.60;;;12.40;99.90;;;12.72;100.00;99294.44;5052544;28;20055;-63
2024/04/01 07:16:48;;;;;;;10.95;9.95;;;12.50;99.90;;;12.81;100.00;99304.72;5052601;28;20041;-64
2024/04/01 07:19:15;;;;;;;12.02;10.70;;;12.50;99.90;;;12.81;100.00;99307.38;5052334;28;20045;-63
2024/04/01 07:21:44;;;;;;;11.60;10.38;;;12.50;99.90;;;12.86;100.00;99305.41;5052197;28;20071;-62
2024/04/01 07:24:10;;;;;;;11.23;10.13;;;12.50;99.90;;;12.88;100.00;99300.91;5052530;28;20448;-67
2024/04/01 07:26:37;;;;;;;11.40;10.30;;;12.60;99.90;;;12.99;100.00;99303.16;5052211;28;20033;-64
2024/04/01 07:29:04;;;;;;;11.73;10.63;;;12.60;99.90;;;12.94;100.00;99294.50;5035635;28;20383;-64
2024/04/01 07:31:31;;;;;;;11.40;10.18;;;12.60;99.90;;;13.03;100.00;99299.44;5052250;28;20041;-64
2024/04/01 07:33:58;;;;;;;10.85;9.65;;;12.70;99.90;;;13.09;100.00;99304.53;5052032;28;20052;-68
2024/04/01 07:36:26;;;;;;;10.57;9.60;;;12.70;99.90;;;13.08;99.99;99302.81;5050477;28;20071;-67
2024/04/01 07:38:53;;;;;;;11.23;9.93;;;12.70;99.90;;;13.08;100.00;99302.81;5050335;28;20128;-65
2024/04/01 07:41:21;;;;;;;10.73;9.63;;;12.70;99.90;;;12.49;100.00;99201.66;5050135;28;20068;-64
2024/04/01 07:43:47;;;;;;;10.65;9.65;;;12.80;99.90;;;13.04;100.00;99299.44;5050040;28;20057;-66
2024/04/01 07:46:15;;;;;;;13.18;9.50;;;12.70;99.90;;;13.07;100.00;99307.25;5049905;28;20045;-64
2024/04/01 07:48:41;;;;;;;10.50;9.50;;;12.70;99.90;;;13.03;100.00;99313.59;5049982;28;20063;-64
2024/04/01 07:51:08;;;;;;;10.15;9.18;;;12.70;99.90;;;13.12;100.00;99321.22;5049821;28;20049;-66
2024/04/01 07:53:35;;;;;;;9.48;8.60;;;12.80;99.90;;;13.06;100.00;99328.56;5049693;28;20075;-66
2024/04/01 07:56:05;;;;;;;10.27;9.20;;;12.70;99.90;;;12.97;100.00;99336.84;5049809;28;20045;-66
2024/04/01 07:58:31;;;;;;;10.23;9.23;;;12.70;99.90;;;13.00;100.00;99353.50;5049898;28;20577;-67
2024/04/01 08:00:59;;;;;;;8.93;8.00;;;12.70;99.90;;;12.88;100.00;99353.97;5049715;28;20051;-68
2024/04/01 08:03:25;;;;;;;7.90;7.30;;;12.60;99.90;;;12.81;100.00;99363.09;5049723;28;20050;-69
2024/04/01 08:05:54;;;;;;;8.65;7.88;;;12.50;99.90;;;12.74;100.00;99361.59;5049694;28;20048;-66
2024/04/01 08:08:21;;;;;;;8.80;7.97;;;12.40;99.90;;;12.73;100.00;99369.59;5049519;28;20040;-65
2024/04/01 08:10:49;;;;;;;8.70;7.90;;;12.40;99.90;;;12.74;100.00;99372.19;5049722;28;20045;-64
2024/04/01 08:13:16;;;;;;;9.85;8.00;;;12.40;99.90;;;12.72;100.00;99370.53;5049839;28;20044;-70
2024/04/01 08:15:44;;;;;;;9.40;8.50;;;12.40;99.90;;;12.61;100.00;99363.84;5049682;28;20052;-68
2024/04/01 08:18:10;;;;;;;13.32;8.15;;;12.30;99.90;;;12.67;100.00;99360.09;5050134;28;20049;-70
2024/04/01 08:20:38;;;;;;;9.32;7.38;;;12.40;99.90;;;12.78;100.00;99364.97;5049551;28;20041;-67
2024/04/01 08:23:04;;;;;;;8.73;7.82;;;12.40;99.90;;;12.80;100.00;99358.69;5049095;28;20511;-68
2024/04/01 08:25:32;;;;;;;11.73;7.45;;;12.50;99.90;;;12.82;100.00;99367.47;5049495;28;20110;-71
2024/04/01 08:27:58;;;;;;;7.97;7.13;;;12.50;99.90;;;12.82;100.00;99366.59;5049434;28;20048;-69
2024/04/01 08:30:27;;;;;;;9.02;7.55;;;12.50;99.90;;;12.81;100.00;99372.84;5049202;28;20045;-66
2024/04/01 08:32:53;;;;;;;8.57;7.63;;;12.50;99.90;;;12.84;100.00;99372.72;5049514;28;20406;-69
2024/04/01 08:35:21;;;;;;;9.73;7.10;;;12.50;99.90;;;12.88;100.00;99372.56;5049393;28;20033;-67
2024/04/01 08:37:47;;;;;;;12.23;7.60;;;12.60;99.90;;;12.86;100.00;99374.41;5048951;28;20099;-70
2024/04/01 08:40:15;;;;;;;9.80;7.68;;;12.60;99.90;;;12.91;100.00;99379.53;5049180;28;20052;-68
2024/04/01 08:42:46;;;;;;;9.32;7.25;;;12.60;99.90;;;12.88;100.00;99385.81;5049151;28;20044;-69
2024/04/01 08:45:14;;;;;;;11.15;7.57;;;12.60;99.90;;;12.65;100.00;99351.31;5033163;28;20168;-69
2024/04/01 08:47:44;;;;;;;10.25;7.25;;;12.60;99.90;;;12.85;100.00;99395.69;5049147;28;20037;-70
2024/04/01 08:50:20;;;;;;;10.57;8.38;;;12.50;99.90;;;12.85;100.00;99388.59;5049826;28;20041;-71
2024/04/01 08:52:55;;;;;;;12.63;7.85;;;12.50;99.90;;;12.87;100.00;99397.38;5049211;28;20045;-73
2024/04/01 08:55:23;;;;;;;9.60;7.60;;;12.60;99.90;;;12.94;100.00;99396.22;5049343;28;20131;-71
2024/04/01 08:57:50;;;;;;;12.35;7.78;;;12.60;99.90;;;12.79;100.00;99395.91;5048833;28;20095;-67
2024/04/01 09:00:20;;;;;;;12.15;6.95;;;12.50;99.90;;;12.77;100.00;99403.06;5032774;28;20049;-70
2024/04/01 09:02:48;;;;;;;9.75;7.00;;;12.50;99.90;;;12.77;100.00;99406.59;5049180;28;20053;-66
2024/04/01 09:05:16;;;;;;;9.45;6.28;;;12.40;99.90;;;12.81;100.00;99408.22;5049423;28;20048;-68
2024/04/01 09:07:42;;;;;;;13.63;5.93;;;12.50;99.90;;;12.79;100.00;99406.53;5048802;28;20091;-67
2024/04/01 09:10:10;;;;;;;11.27;6.82;;;12.50;99.90;;;12.87;100.00;99415.94;5049020;28;20049;-66
2024/04/01 09:12:36;;;;;;;12.95;6.50;;;12.60;99.90;;;12.93;100.00;99417.50;5048937;28;20120;-69
2024/04/01 09:15:12;;;;;;;12.02;6.72;;;12.60;99.90;;;12.83;100.00;99426.72;5048045;28;20045;-68
2024/04/01 09:17:38;;;;;;;13.70;6.38;;;12.60;99.90;;;12.87;100.00;99426.56;5049434;28;20110;-67
2024/04/01 09:20:08;;;;;;;13.85;6.88;;;12.60;99.90;;;12.87;100.00;99429.22;5048797;28;20040;-67
2024/04/01 09:22:35;;;;;;;14.43;6.95;;;12.60;99.90;;;12.83;100.00;99430.25;5049211;28;20033;-68
2024/04/01 09:25:03;;;;;;;15.98;6.43;;;12.50;99.90;;;12.86;100.00;99432.78;5048754;28;20053;-67
2024/04/01 09:27:29;;;;;;;14.75;7.15;;;12.60;99.90;;;12.84;100.00;99431.97;5048738;28;20043;-67
2024/04/01 09:29:56;;;;;;;15.13;6.45;;;12.60;99.90;;;12.68;100.00;99414.84;5048488;28;20037;-67
2024/04/01 09:32:23;;;;;;;18.65;6.85;;;12.50;99.90;;;12.84;100.00;99431.97;5048762;28;20490;-67
2024/04/01 09:34:57;;;;;;;18.17;6.90;;;12.50;99.90;;;12.72;100.00;99429.75;5048329;28;20037;-70
2024/04/01 09:37:25;;;;;;;13.75;7.10;;;12.50;99.90;;;12.81;100.00;99432.09;5048759;28;20425;-67
2024/04/01 09:39:53;;;;;;;16.10;7.05;;;12.50;99.90;;;12.78;100.00;99442.78;5031947;28;20060;-63
2024/04/01 09:42:19;;;;;;;13.00;6.28;;;12.50;99.90;;;12.77;100.00;99435.78;5048478;28;20041;-63
2024/04/01 09:44:47;;;;;;;13.65;6.57;;;12.50;99.90;;;12.84;100.00;99439.03;5048567;28;20175;-66
2024/04/01 09:47:15;;;;;;;17.08;6.10;;;12.60;99.90;;;12.81;100.00;99450.66;5048353;28;20494;-67
2024/04/01 09:49:44;;;;;;;19.95;6.50;;;12.50;99.90;;;12.84;100.00;99450.53;5048538;28;20103;-67
2024/04/01 09:52:12;;;;;;;16.08;6.40;;;12.50;99.90;;;12.87;100.00;99447.78;5052473;28;20044;-65
2024/04/01 09:54:41;;;;;;;18.40;6.82;;;12.60;99.90;;;12.98;100.00;99452.69;5052002;28;20041;-64
2024/04/01 09:57:48;;;;;;;13.75;6.20;;;12.60;99.90;;;13.04;100.00;99455.16;5051925;28;20049;-66
2024/04/01 10:00:17;;;;;;;16.38;6.78;;;12.70;99.90;;;13.04;100.00;99460.47;5052132;28;20049;-64
2024/04/01 10:03:29;;;;;;;13.70;7.35;;;12.70;99.90;;;12.90;100.00;99455.63;5052006;28;20059;-65
2024/04/01 10:06:56;;;;;;;18.10;6.78;;;12.70;99.90;;;12.80;99.72;99463.97;5052134;28;20053;-67